createdAt,value
2023-03-13T00:00:35.527Z,26.10
2023-03-13T00:01:35.747Z,35.61
2023-03-13T00:02:35.997Z,37.51
2023-03-13T00:03:36.207Z,16.44
2023-03-13T00:04:36.470Z,21.03
2023-03-13T00:05:36.660Z,15.33
2023-03-13T00:06:36.876Z,11.27
2023-03-13T00:07:37.078Z,11.01
2023-03-13T00:08:37.289Z,13.32
2023-03-13T00:09:37.478Z,19.09
2023-03-13T00:10:37.644Z,39.98
2023-03-13T00:11:37.908Z,61.99
2023-03-13T00:12:38.119Z,82.72
2023-03-13T00:13:38.219Z,84.66
2023-03-13T00:14:38.535Z,88.94
2023-03-13T00:15:38.723Z,67.86
2023-03-13T00:16:38.986Z,63.77
2023-03-13T00:17:39.151Z,73.91
2023-03-13T00:18:39.425Z,77.13
2023-03-13T00:19:39.465Z,88.52
2023-03-13T00:20:39.715Z,91.73
2023-03-13T00:21:39.853Z,92.75
2023-03-13T00:22:40.013Z,95.58
2023-03-13T00:23:40.178Z,80.42
2023-03-13T00:24:40.313Z,69.55
2023-03-13T00:25:40.469Z,52.57
2023-03-13T00:26:40.673Z,41.99
2023-03-13T00:27:40.814Z,29.63
2023-03-13T00:28:40.952Z,22.31
2023-03-13T00:29:41.036Z,18.72
2023-03-13T00:30:41.200Z,14.06
2023-03-13T00:31:41.244Z,44.84
2023-03-13T00:32:41.374Z,70.79
2023-03-13T00:33:41.463Z,68.97
2023-03-13T00:34:41.571Z,57.30
2023-03-13T00:35:41.701Z,48.32
2023-03-13T00:36:41.784Z,34.90
2023-03-13T00:37:41.901Z,25.00
2023-03-13T00:38:42.037Z,32.93
2023-03-13T00:39:42.147Z,54.18
2023-03-13T00:40:42.260Z,76.21
2023-03-13T00:41:42.418Z,77.07
2023-03-13T00:42:42.533Z,69.27
2023-03-13T00:43:42.683Z,57.95
2023-03-13T00:44:42.774Z,43.87
2023-03-13T00:45:42.896Z,33.97
2023-03-13T00:46:43.014Z,29.62
2023-03-13T00:47:43.096Z,24.82
2023-03-13T00:48:43.183Z,24.95
2023-03-13T00:49:43.295Z,25.73
2023-03-13T00:50:43.383Z,28.98
2023-03-13T00:51:43.470Z,23.67
2023-03-13T00:52:43.526Z,24.78
2023-03-13T00:53:43.595Z,25.00
2023-03-13T00:54:43.680Z,28.69
2023-03-13T00:55:43.745Z,27.99
2023-03-13T00:56:43.825Z,30.87
2023-03-13T00:57:43.899Z,35.74
2023-03-13T00:58:43.985Z,44.62
2023-03-13T00:59:44.069Z,51.61
2023-03-13T01:00:44.139Z,51.40
2023-03-13T01:01:44.215Z,46.29
2023-03-13T01:02:44.388Z,58.12
2023-03-13T01:03:44.377Z,57.59
2023-03-13T01:04:44.475Z,54.84
2023-03-13T01:05:44.564Z,56.69
2023-03-13T01:06:44.667Z,37.06
2023-03-13T01:07:44.763Z,23.25
2023-03-13T01:08:44.859Z,17.41
2023-03-13T01:09:44.937Z,16.44
2023-03-13T01:10:45.028Z,27.20
2023-03-13T01:11:45.116Z,35.33
2023-03-13T01:12:45.210Z,36.81
2023-03-13T01:13:45.290Z,33.38
2023-03-13T01:14:45.387Z,28.25
2023-03-13T01:15:45.477Z,25.00
2023-03-13T01:16:45.525Z,27.05
2023-03-13T01:17:45.599Z,46.30
2023-03-13T01:18:45.670Z,71.86
2023-03-13T01:19:45.828Z,90.05
2023-03-13T01:20:45.818Z,99.27
2023-03-13T01:21:45.909Z,104.41
2023-03-13T01:22:45.976Z,108.49
2023-03-13T01:23:46.077Z,95.09
2023-03-13T01:24:46.153Z,71.98
2023-03-13T01:25:46.193Z,78.11
2023-03-13T01:26:46.302Z,92.56
2023-03-13T01:27:46.419Z,106.12
2023-03-13T01:28:46.587Z,114.07
2023-03-13T01:29:46.711Z,118.36
2023-03-13T01:30:46.919Z,119.37
2023-03-13T01:31:47.011Z,124.15
2023-03-13T01:32:47.204Z,129.80
2023-03-13T01:34:47.354Z,131.29
2023-03-13T01:35:47.511Z,133.83
2023-03-13T01:36:47.609Z,134.33
2023-03-13T01:37:47.675Z,125.11
2023-03-13T01:38:47.788Z,119.39
2023-03-13T01:39:47.858Z,124.67
2023-03-13T01:40:47.957Z,128.89
2023-03-13T01:41:48.042Z,131.61
2023-03-13T01:42:48.271Z,133.83
2023-03-13T01:43:48.499Z,134.49
2023-03-13T01:44:48.724Z,133.13
2023-03-13T01:57:50.670Z,54.35
2023-03-13T01:58:50.729Z,48.06
2023-03-13T01:59:50.790Z,38.20
2023-03-13T02:00:50.844Z,36.14
2023-03-13T02:01:50.967Z,47.64
2023-03-13T02:28:53.346Z,30.21
2023-03-13T02:29:53.417Z,23.97
2023-03-13T03:34:00.624Z,117.50
2023-03-13T03:35:00.758Z,111.57
2023-03-13T03:36:00.929Z,107.06
2023-03-13T03:37:01.022Z,107.22
2023-03-13T03:38:01.110Z,106.39
2023-03-13T03:39:01.228Z,103.68
2023-03-13T03:40:01.428Z,95.95
2023-03-13T04:23:10.759Z,27.38
2023-03-13T04:24:10.983Z,23.72
2023-03-13T04:25:11.221Z,23.04
2023-03-13T04:26:11.434Z,26.94
2023-03-13T04:27:11.683Z,40.95
2023-03-13T04:28:11.877Z,49.82
2023-03-13T04:29:12.110Z,55.84
2023-03-13T04:30:12.363Z,63.09
2023-03-13T04:31:12.604Z,67.23
2023-03-13T04:32:12.852Z,63.23
2023-03-13T04:33:13.062Z,51.66
2023-03-13T04:34:13.267Z,48.95
2023-03-13T04:35:13.575Z,48.97
2023-03-13T04:36:13.752Z,45.22
2023-03-13T04:37:14.044Z,53.80
2023-03-13T04:38:14.296Z,68.23
2023-03-13T04:39:14.529Z,75.93
2023-03-13T04:40:14.755Z,79.78
2023-03-13T04:41:15.004Z,83.39
2023-03-13T04:42:15.228Z,89.21
2023-03-13T04:43:15.480Z,87.86
2023-03-13T04:44:15.661Z,87.17
2023-03-13T04:45:15.847Z,81.84
2023-03-13T04:46:16.143Z,59.12
2023-03-13T04:47:16.280Z,47.27
2023-03-13T04:48:16.473Z,44.17
2023-03-13T04:49:16.779Z,59.92
2023-03-13T04:50:17.015Z,81.41
2023-03-13T04:51:17.233Z,105.16
2023-03-13T04:52:17.378Z,121.58
2023-03-13T04:53:17.633Z,132.66
2023-03-13T04:54:17.879Z,133.87
2023-03-13T05:07:20.792Z,136.78
2023-03-13T05:08:21.040Z,143.27
2023-03-13T05:09:21.249Z,147.71
2023-03-13T05:10:21.471Z,153.86
2023-03-13T05:50:30.782Z,83.47
2023-03-13T05:51:31.095Z,97.76
2023-03-13T05:52:31.300Z,107.30
2023-03-13T05:53:31.520Z,122.06
2023-03-13T05:54:31.719Z,138.20
2023-03-13T05:55:32.022Z,152.08
2023-03-13T05:56:32.236Z,158.94
2023-03-13T05:57:32.469Z,164.20
2023-03-13T05:58:32.695Z,161.48
2023-03-13T05:59:32.927Z,136.77
2023-03-13T06:35:54.849Z,125.86
2023-03-13T06:37:40.920Z,129.75
2023-03-13T06:38:40.989Z,138.15
2023-03-13T07:42:50.716Z,26.34
2023-03-13T07:43:50.976Z,36.78
2023-03-13T07:44:51.155Z,51.82
2023-03-13T07:45:51.306Z,76.77
2023-03-13T07:46:51.586Z,94.30
2023-03-13T07:47:51.796Z,107.01
2023-03-13T07:48:52.768Z,115.07
2023-03-13T07:49:52.035Z,119.43
2023-03-13T07:50:52.066Z,113.78
2023-03-13T07:51:52.058Z,106.58
2023-03-13T07:52:52.127Z,106.11
2023-03-13T07:53:52.110Z,107.03
2023-03-13T07:54:52.149Z,108.25
2023-03-13T07:55:52.155Z,112.26
2023-03-13T07:56:52.316Z,113.84
2023-03-13T07:57:52.253Z,116.24
2023-03-13T07:58:52.318Z,116.25
2023-03-13T07:59:52.361Z,119.88
2023-03-13T08:00:52.420Z,116.02
2023-03-13T08:01:53.279Z,103.36
2023-03-13T08:02:52.489Z,94.52
2023-03-13T08:03:52.595Z,99.48
2023-03-13T08:04:52.543Z,102.12
2023-03-13T08:05:52.565Z,92.20
2023-03-13T08:06:52.630Z,86.76
2023-03-13T08:07:52.661Z,82.93
2023-03-13T08:08:52.703Z,74.28
2023-03-13T08:09:52.739Z,69.06
2023-03-13T08:10:52.790Z,79.25
2023-03-13T08:11:52.879Z,98.40
2023-03-13T08:12:52.926Z,95.38
2023-03-13T08:13:52.982Z,86.80
2023-03-13T08:14:53.023Z,87.74
2023-03-13T08:15:53.085Z,84.11
2023-03-13T08:16:53.225Z,86.86
2023-03-13T08:17:53.175Z,78.60
2023-03-13T08:18:53.211Z,67.44
2023-03-13T08:19:53.246Z,60.33
2023-03-13T08:20:53.312Z,61.42
2023-03-13T08:21:53.351Z,58.97
2023-03-13T08:22:53.401Z,52.13
2023-03-13T08:23:53.464Z,46.67
2023-03-13T08:24:53.510Z,41.46
2023-03-13T08:25:53.623Z,39.10
2023-03-13T08:26:53.582Z,36.92
2023-03-13T08:27:53.618Z,36.89
2023-03-13T08:28:53.660Z,34.49
2023-03-13T08:29:53.713Z,34.57
2023-03-13T08:30:53.936Z,36.45
2023-03-13T08:31:54.056Z,36.47
2023-03-13T08:32:54.330Z,32.75
2023-03-13T08:33:54.406Z,31.04
2023-03-13T08:34:54.562Z,26.99
2023-03-13T08:35:54.789Z,27.11
2023-03-13T08:36:54.910Z,26.24
2023-03-13T08:37:55.155Z,26.00
2023-03-13T08:38:55.366Z,26.64
2023-03-13T08:39:55.483Z,31.87
2023-03-13T08:40:56.305Z,42.20
2023-03-13T08:41:55.657Z,46.61
2023-03-13T08:42:55.664Z,51.80
2023-03-13T08:43:55.682Z,63.12
2023-03-13T08:44:57.307Z,68.47
2023-03-13T08:45:56.357Z,73.64
2023-03-13T08:46:55.708Z,71.06
2023-03-13T08:47:55.718Z,67.08
2023-03-13T08:48:55.754Z,64.59
2023-03-13T08:49:55.799Z,59.89
2023-03-13T08:50:55.823Z,58.95
2023-03-13T08:51:55.898Z,65.07
2023-03-13T08:52:55.898Z,63.92
2023-03-13T08:53:55.957Z,66.57
2023-03-13T08:54:55.881Z,66.98
2023-03-13T08:55:55.859Z,68.04
2023-03-13T08:56:55.843Z,67.90
2023-03-13T08:57:55.815Z,71.69
2023-03-13T08:58:55.808Z,71.96
2023-03-13T08:59:55.779Z,73.94
2023-03-13T09:00:56.753Z,69.95
2023-03-13T09:01:57.293Z,67.81
2023-03-13T09:02:56.321Z,64.62
2023-03-13T09:03:55.752Z,64.27
2023-03-13T09:04:55.654Z,60.25
2023-03-13T09:05:56.641Z,55.78
2023-03-13T09:06:55.598Z,53.24
2023-03-13T09:07:55.560Z,50.75
2023-03-13T10:51:02.363Z,101.50
2023-03-13T10:56:00.746Z,95.36
2023-03-13T10:57:00.956Z,96.41
2023-03-13T10:58:01.156Z,97.09
2023-03-13T10:59:01.337Z,95.28
2023-03-13T11:00:03.795Z,92.12
2023-03-13T11:01:01.370Z,92.13
2023-03-13T11:02:01.250Z,98.25
2023-03-13T11:03:01.263Z,98.13
2023-03-13T11:04:01.080Z,103.71
2023-03-13T11:05:00.913Z,117.07
2023-03-13T11:06:00.770Z,111.93
2023-03-13T11:07:00.653Z,109.73
2023-03-13T11:35:00.690Z,113.44
2023-03-13T11:36:00.907Z,116.04
2023-03-13T11:37:01.027Z,112.65
2023-03-13T11:38:01.178Z,112.31
2023-03-13T11:39:01.406Z,112.47
2023-03-13T11:40:01.556Z,114.96
2023-03-13T11:41:01.766Z,114.48
2023-03-13T11:42:01.906Z,118.64
2023-03-13T11:43:06.510Z,115.24
2023-03-13T11:44:02.955Z,115.30
2023-03-13T11:45:01.818Z,115.26
2023-03-13T11:46:01.808Z,113.30
2023-03-13T11:47:01.707Z,114.94
2023-03-13T11:48:01.415Z,111.62
2023-03-13T11:49:01.294Z,106.39
2023-03-13T11:50:01.136Z,102.86
2023-03-13T11:51:01.050Z,100.24
2023-03-13T11:52:00.867Z,97.38
2023-03-13T11:53:00.754Z,95.53
2023-03-13T12:08:00.625Z,99.97
2023-03-13T12:09:00.731Z,99.87
2023-03-13T12:10:00.844Z,104.71
2023-03-13T12:15:01.664Z,109.21
2023-03-13T14:09:10.631Z,207.58
2023-03-13T14:10:10.822Z,206.35
2023-03-13T14:11:10.857Z,208.16
2023-03-13T14:12:11.918Z,202.87
2023-03-13T14:13:10.805Z,195.55
2023-03-13T14:14:10.684Z,202.31
2023-03-13T14:18:10.735Z,198.07
2023-03-13T14:19:11.551Z,198.24
2023-03-13T14:32:10.722Z,208.11
2023-03-13T14:33:10.961Z,208.96
2023-03-13T14:34:11.026Z,201.52
2023-03-13T14:35:11.271Z,203.97
2023-03-13T14:36:11.449Z,204.79
2023-03-13T14:37:18.241Z,203.17
2023-03-13T14:38:12.323Z,201.13
2023-03-13T14:39:11.150Z,196.30
2023-03-13T14:40:10.961Z,197.23
2023-03-13T14:41:10.895Z,195.76
2023-03-13T14:42:11.069Z,198.04
2023-03-13T14:43:11.215Z,201.87
2023-03-13T14:44:11.383Z,204.74
2023-03-13T14:45:11.524Z,207.00
2023-03-13T14:46:11.661Z,207.12
2023-03-13T14:47:11.900Z,206.01
2023-03-13T14:48:12.020Z,203.06
2023-03-13T14:49:12.200Z,203.06
2023-03-13T14:50:12.322Z,204.61
2023-03-13T14:51:15.917Z,209.30
2023-03-13T14:52:12.283Z,209.53
2023-03-13T14:53:12.101Z,210.25
2023-03-13T14:54:12.001Z,213.18
2023-03-13T14:55:12.170Z,216.21
2023-03-13T14:56:12.421Z,219.28
2023-03-13T14:57:12.522Z,218.58
2023-03-13T14:58:12.683Z,216.14
2023-03-13T14:59:12.861Z,212.95
2023-03-13T15:00:13.023Z,215.80
2023-03-13T15:01:13.213Z,227.13
2023-03-13T15:02:13.414Z,230.80
2023-03-13T15:03:13.557Z,226.31
2023-03-13T15:04:13.851Z,223.12
2023-03-13T15:05:14.134Z,225.03
2023-03-13T15:06:14.109Z,228.60
2023-03-13T15:07:14.210Z,229.01
2023-03-13T15:08:14.558Z,224.64
2023-03-13T15:09:14.559Z,216.10
2023-03-13T15:10:14.825Z,212.27
2023-03-13T15:11:14.900Z,213.56
2023-03-13T15:12:15.065Z,213.30
2023-03-13T15:13:14.975Z,215.57
2023-03-13T15:14:14.726Z,218.13
2023-03-13T15:15:14.619Z,219.58
2023-03-13T15:16:14.827Z,220.56
2023-03-13T15:17:14.957Z,222.32
2023-03-13T15:18:15.124Z,223.12
2023-03-13T15:19:15.299Z,224.05
2023-03-13T15:20:15.483Z,223.83
2023-03-13T15:21:15.562Z,225.98
2023-03-13T15:22:15.745Z,230.79
2023-03-13T15:23:15.884Z,236.41
2023-03-13T15:24:16.051Z,234.50
2023-03-13T15:25:16.275Z,225.41
2023-03-13T15:26:16.391Z,220.49
2023-03-13T15:27:16.561Z,217.24
2023-03-13T15:28:16.739Z,214.68
2023-03-13T15:29:16.866Z,218.33
2023-03-13T15:30:16.996Z,223.24
2023-03-13T15:31:17.307Z,238.83
2023-03-13T15:32:17.447Z,252.29
2023-03-13T15:33:17.558Z,255.19
2023-03-13T15:34:17.720Z,262.08
2023-03-13T15:35:17.856Z,276.50
2023-03-13T15:36:18.090Z,294.22
2023-03-13T15:37:18.193Z,266.91
2023-03-13T15:38:18.395Z,276.21
2023-03-13T15:39:18.529Z,251.86
2023-03-13T15:40:18.737Z,242.41
2023-03-13T15:41:18.869Z,243.12
2023-03-13T15:42:19.067Z,242.64
2023-03-13T15:43:19.210Z,241.98
2023-03-13T15:44:19.357Z,241.23
2023-03-13T15:45:19.501Z,236.79
2023-03-13T15:46:19.764Z,234.15
2023-03-13T15:47:19.871Z,234.90
2023-03-13T15:48:19.973Z,240.18
2023-03-13T15:49:20.111Z,251.31
2023-03-13T15:50:20.358Z,257.48
2023-03-13T15:51:20.458Z,258.98
2023-03-13T15:52:20.609Z,257.61
2023-03-13T15:53:20.736Z,256.14
2023-03-13T15:54:20.886Z,249.21
2023-03-13T15:55:21.075Z,242.85
2023-03-13T15:56:21.271Z,237.89
2023-03-13T15:57:21.416Z,238.34
2023-03-13T15:58:21.558Z,240.16
2023-03-13T15:59:21.696Z,242.26
2023-03-13T16:00:21.849Z,245.95
2023-03-13T16:01:22.159Z,255.82
2023-03-13T16:02:22.234Z,264.13
2023-03-13T16:03:22.371Z,267.72
2023-03-13T16:04:22.613Z,268.16
2023-03-13T16:05:22.704Z,272.54
2023-03-13T16:06:22.919Z,275.76
2023-03-13T16:07:23.065Z,259.71
2023-03-13T16:08:34.653Z,242.95
2023-03-13T16:09:24.062Z,233.35
2023-03-13T16:10:25.247Z,226.37
2023-03-13T16:11:22.798Z,225.67
2023-03-13T16:12:22.668Z,228.46
2023-03-13T16:13:22.543Z,234.00
2023-03-13T16:14:22.412Z,232.91
2023-03-13T16:15:22.296Z,230.22
2023-03-13T16:16:22.203Z,229.72
2023-03-13T16:17:22.042Z,231.41
2023-03-13T16:18:21.928Z,226.82
2023-03-13T16:19:21.771Z,231.49
2023-03-13T16:20:21.694Z,236.85
2023-03-13T16:21:21.526Z,233.34
2023-03-13T16:22:21.404Z,228.99
2023-03-13T16:23:21.292Z,229.76
2023-03-13T16:24:21.183Z,231.81
2023-03-13T16:25:21.031Z,233.73
2023-03-13T16:26:20.905Z,235.06
2023-03-13T16:27:20.769Z,228.79
2023-03-13T16:28:20.684Z,229.27
2023-03-13T16:29:20.521Z,229.50
2023-03-13T16:30:20.410Z,230.36
2023-03-13T16:31:20.454Z,235.07
2023-03-13T16:32:20.188Z,235.62
2023-03-13T16:33:20.025Z,233.89
2023-03-13T16:34:19.904Z,226.03
2023-03-13T16:35:19.820Z,217.63
2023-03-13T16:36:19.681Z,213.81
2023-03-13T16:37:19.534Z,213.53
2023-03-13T16:38:19.417Z,220.01
2023-03-13T16:39:19.305Z,224.19
2023-03-13T16:40:19.206Z,226.94
2023-03-13T16:41:19.069Z,228.32
2023-03-13T16:42:19.012Z,223.71
2023-03-13T16:43:18.917Z,221.84
2023-03-13T16:44:18.789Z,222.99
2023-03-13T16:45:18.665Z,217.22
2023-03-13T16:46:18.540Z,213.01
2023-03-13T16:47:18.412Z,212.40
2023-03-13T16:48:18.287Z,211.85
2023-03-13T16:49:18.278Z,214.57
2023-03-13T17:03:20.633Z,221.48
2023-03-13T17:04:20.777Z,217.29
2023-03-13T17:05:20.957Z,218.26
2023-03-13T17:06:21.093Z,217.58
2023-03-13T17:07:21.246Z,212.27
2023-03-13T17:08:21.390Z,216.45
2023-03-13T17:09:21.557Z,219.70
2023-03-13T17:10:21.796Z,223.02
2023-03-13T17:11:21.814Z,233.77
2023-03-13T17:12:21.937Z,241.69
2023-03-13T17:13:22.071Z,245.03
2023-03-13T17:14:22.331Z,244.49
2023-03-13T17:15:22.560Z,244.22
2023-03-13T17:16:22.677Z,240.52
2023-03-13T17:17:22.817Z,238.58
2023-03-13T17:18:23.020Z,232.42
2023-03-13T17:19:23.195Z,229.76
2023-03-13T17:20:23.422Z,229.67
2023-03-13T17:21:23.569Z,230.84
2023-03-13T17:22:23.680Z,232.82
2023-03-13T18:06:30.620Z,222.56
2023-03-13T18:07:30.761Z,223.60
2023-03-13T18:08:30.911Z,226.09
2023-03-13T18:09:31.130Z,229.42
2023-03-13T18:10:31.266Z,227.55
2023-03-13T18:11:31.456Z,224.44
2023-03-13T18:12:31.598Z,225.94
2023-03-13T18:13:31.761Z,225.86
2023-03-13T18:14:31.929Z,223.37
2023-03-13T18:15:32.240Z,213.03
2023-03-13T18:16:32.322Z,207.44
2023-03-13T18:17:32.456Z,205.66
2023-03-13T18:18:32.647Z,209.71
2023-03-13T18:19:32.789Z,210.22
2023-03-13T19:03:40.683Z,213.92
2023-03-13T19:04:40.905Z,214.14
2023-03-13T19:05:41.050Z,215.38
2023-03-13T19:06:41.244Z,216.75
2023-03-13T19:07:41.442Z,218.77
2023-03-13T19:08:41.672Z,219.75
2023-03-13T19:09:43.960Z,220.12
2023-03-13T19:10:41.819Z,219.63
2023-03-13T19:11:41.703Z,219.99
2023-03-13T19:12:41.649Z,216.90
2023-03-13T19:13:41.576Z,197.51
2023-03-13T19:14:41.518Z,188.87
2023-03-13T19:15:41.465Z,196.19
2023-03-13T19:16:41.508Z,200.14
2023-03-13T19:17:41.377Z,208.39
2023-03-13T19:18:41.344Z,214.07
2023-03-13T19:19:41.291Z,217.91
2023-03-13T19:20:41.244Z,222.43
2023-03-13T19:21:41.209Z,227.85
2023-03-13T19:22:41.164Z,232.93
2023-03-13T19:23:41.113Z,234.37
2023-03-13T19:24:41.058Z,233.31
2023-03-13T19:25:40.989Z,232.25
2023-03-13T19:26:40.948Z,231.08
2023-03-13T19:27:40.883Z,234.00
2023-03-13T19:28:40.828Z,233.75
2023-03-13T19:29:40.782Z,228.18
2023-03-13T19:30:40.728Z,226.23
2023-03-13T19:31:40.738Z,227.38
2023-03-13T19:32:40.660Z,225.90
2023-03-13T20:35:40.712Z,191.33
2023-03-13T20:36:40.900Z,195.80
2023-03-13T20:37:41.051Z,195.21
2023-03-13T20:38:41.220Z,191.40
2023-03-13T20:39:41.430Z,192.56
2023-03-13T20:40:41.630Z,195.78
2023-03-13T20:41:41.791Z,199.83
2023-03-13T20:42:41.994Z,202.81
2023-03-13T20:43:42.213Z,204.08
2023-03-13T20:44:42.365Z,204.97
2023-03-13T20:45:42.567Z,207.72
2023-03-13T21:31:50.771Z,207.75
2023-03-13T21:32:51.009Z,205.37
2023-03-13T21:33:51.135Z,206.15
2023-03-13T21:34:51.277Z,207.40
2023-03-13T21:35:51.554Z,200.56
2023-03-13T21:36:51.693Z,200.15
2023-03-13T21:37:51.899Z,200.42
2023-03-13T21:38:52.023Z,197.13
2023-03-13T21:39:52.239Z,196.13
2023-03-13T21:40:52.401Z,193.56
2023-03-13T21:41:52.613Z,187.31
2023-03-13T21:42:52.816Z,183.59
2023-03-13T21:43:52.998Z,183.91
2023-03-13T21:44:53.133Z,184.85
2023-03-13T21:45:53.378Z,181.02
2023-03-13T21:46:53.587Z,178.20
2023-03-13T21:47:53.733Z,179.19
2023-03-13T21:48:53.907Z,176.97
2023-03-13T21:49:54.136Z,175.03
2023-03-13T21:50:54.326Z,180.91
2023-03-13T21:51:54.453Z,187.16
2023-03-13T21:52:54.648Z,191.64
2023-03-13T21:53:54.854Z,195.70
2023-03-13T21:54:54.998Z,194.36
2023-03-13T21:55:55.143Z,193.01
2023-03-13T21:56:55.331Z,192.76
2023-03-13T21:57:55.552Z,193.02
2023-03-13T21:58:55.690Z,190.28
2023-03-13T22:26:00.766Z,132.95
2023-03-13T22:27:00.927Z,136.90
2023-03-13T22:28:01.141Z,139.94
2023-03-13T22:29:01.421Z,143.30
2023-03-13T22:30:01.561Z,150.22
2023-03-13T22:31:01.702Z,158.42
2023-03-13T22:32:01.880Z,158.82
2023-03-13T22:33:02.150Z,160.48
2023-03-13T22:34:02.297Z,159.98
2023-03-13T22:35:02.522Z,165.06
2023-03-13T22:36:02.668Z,164.51
2023-03-13T22:38:03.005Z,170.43
2023-03-13T22:39:03.185Z,170.48
2023-03-13T22:40:03.387Z,169.71
2023-03-13T22:41:03.581Z,171.22
2023-03-13T22:43:04.011Z,173.35
2023-03-13T22:44:04.163Z,170.48
2023-03-13T22:45:04.340Z,172.95
2023-03-13T22:46:04.633Z,174.98
2023-03-13T22:47:04.747Z,174.99
2023-03-13T22:49:05.123Z,180.57
